Skip Navigation Links Skip Navigation Links

Current Weather

Roanoke Regional/Woodrum Field, Roanoke, Va.

For information only: do not use for flight planning or navigation.
Latest weather
Observation time Friday, May 25, 2018 7:54 AM EDT
Local time Friday, May 25, 2018 8:35 AM EDT
Flight conditions Visual Meteorological Conditions
Winds
Wind speed calm
Visibility 10 mi.
Sky condition
Ceiling unlimited
Cloud layer few clouds 3,200 ft.
Temperature 67°F
Dewpoint 59°F
Altimeter 30.16 in.Hg
Pressure change last 3 hours0.00 in.Hg
Pressure rising more quickly
Derived measurements
Relative humidity 76%
Density altitude 1654 ft.
Sea-level pressure 30.13 in.Hg
Climate data
Temperature minimum, last 6 hours 61°F
Temperature maximum, last 6 hours 67°F
Remarks
Automated weather observing station with precipitation discriminator.
METAR KROA 251154Z 00000KT 10SM FEW032 19/15 A3016 RMK AO2 SLP203 T01940150 10194 20161 53001

Settings

Location code

InnerDrive.Weather 4.0.6615.0 Release CLR 4.0.30319.42000
Copyright ©2018 Inner Drive Technology. All rights reserved. Portions Copyright ©1986-2018 David Braverman.

Find weather

Site navigation


Skip Navigation Links

Place info

Page info

PayPal - The safer, easier way to pay online!

Return home.

Copyright ©2018 Inner Drive Technology. Purveyors of fine, hand-crafted computer software. Page printed 2018-05-25T12:35:42 UTC.